Portada
METAR-TAF:

METAR-TAF

Aeroports :

Lo Luc, França

latitud: 43-23N, longitud: 006-23E, altitud: 80 m

Observació

L'informe es va fer fa 33 minuts, a les 14:00 UTC
Vent 23 kt del Oest/Nord-Oest amb ràfegues de 40 kt
Temperatura 13°C
Humitat 26%
Pressió 1008 hPa
Visibilitat 10 km o més

METAR: LFMC 261400Z AUTO 29023G40KT 9999 ////// 13/M06 Q1008

Hora: 15:33 (14:33 UTC)


TAF: manca

Observacions i pronòstics meteorològics de més de 4000 aeroports (METAR i TAF).

Les estacions disponibles són els punts grocs i vermells al mapa.

Posi el ratolí al punt desitjat per veure el nom de l'estació.

Feu clic per veure les observacions i els pronòstics meteorològics.

Per canviar el mapa: feu clic els botons verds amb una creu de color negre per apropar; al botó verd amb un guió per allunyar la imatge; o en les fletxes verdes per a mapes adjacents.


METAR-TAF: